Time;durP1;ratioP1;P1;durP2;ratioP2;P2;SDS_P1;SDS_P2;PMS_P1;PMS_P2;Temp;Humidity;BMP_temperature;BMP_pressure;BME280_temperature;BME280_humidity;BME280_pressure;Samples;Min_cycle;Max_cycle;Signal;HPM_P1;HPM_P2
2022/09/02 00:02:50;;;;;;;1.70;1.10;;;23.70;58.00;;;;;;220629;1267;22564;-54
2022/09/02 00:07:55;;;;;;;2.30;1.10;;;23.70;58.00;;;;;;220725;1267;22544;-54
2022/09/02 00:12:59;;;;;;;2.70;1.40;;;23.70;58.00;;;;;;220226;1267;25235;-52
2022/09/02 00:18:05;;;;;;;2.30;1.30;;;23.70;58.00;;;;;;220291;1267;24278;-56
2022/09/02 00:23:17;;;;;;;3.40;1.20;;;23.70;58.00;;;;;;220047;1267;25523;-56
2022/09/02 00:28:21;;;;;;;2.80;1.40;;;23.70;58.30;;;;;;220557;1267;22564;-54
2022/09/02 00:33:26;;;;;;;2.30;1.30;;;23.70;58.70;;;;;;220536;1267;25315;-56
2022/09/02 00:38:34;;;;;;;2.10;1.50;;;23.70;58.40;;;;;;220206;1267;22570;-55
2022/09/02 00:43:45;;;;;;;2.90;1.20;;;23.60;58.00;;;;;;220192;1267;24228;-56
2022/09/02 00:48:58;;;;;;;2.20;1.30;;;23.60;58.00;;;;;;220212;1267;22618;-57
2022/09/02 00:54:03;;;;;;;2.50;1.30;;;23.60;58.40;;;;;;220140;1268;24314;-57
2022/09/02 00:59:08;;;;;;;2.30;1.40;;;23.60;58.00;;;;;;220955;1267;24385;-54
2022/09/02 01:04:12;;;;;;;2.20;1.20;;;23.60;58.00;;;;;;220981;1267;22525;-57
2022/09/02 01:09:16;;;;;;;1.80;1.20;;;23.60;58.00;;;;;;220499;1267;23023;-54
2022/09/02 01:14:21;;;;;;;2.20;1.30;;;23.60;58.00;;;;;;220491;1267;25236;-55
2022/09/02 01:19:31;;;;;;;2.00;1.30;;;23.60;58.00;;;;;;220850;1267;24361;-55
2022/09/02 01:24:35;;;;;;;2.60;1.50;;;23.60;57.80;;;;;;220778;1267;25275;-56
2022/09/02 01:29:38;;;;;;;2.80;1.40;;;23.60;58.00;;;;;;220434;1267;22639;-59
2022/09/02 01:34:42;;;;;;;2.30;1.30;;;23.50;57.90;;;;;;221013;1267;24550;-57
2022/09/02 01:39:48;;;;;;;2.20;1.40;;;23.60;58.70;;;;;;220290;1267;22570;-53
2022/09/02 01:44:53;;;;;;;3.00;1.40;;;23.50;58.10;;;;;;220160;1267;23936;-53
2022/09/02 01:49:57;;;;;;;2.10;1.40;;;23.50;58.30;;;;;;220323;1267;22541;-55
2022/09/02 01:55:04;;;;;;;2.10;1.40;;;23.50;58.00;;;;;;220207;1270;25280;-55
2022/09/02 02:00:11;;;;;;;2.20;1.30;;;23.50;58.00;;;;;;220378;1270;22551;-56
2022/09/02 02:05:15;;;;;;;1.90;1.20;;;23.50;58.00;;;;;;220397;1268;25437;-54
2022/09/02 02:10:21;;;;;;;2.00;1.40;;;23.50;58.00;;;;;;220018;1270;22615;-52
2022/09/02 02:15:24;;;;;;;2.40;1.30;;;23.50;58.10;;;;;;220161;1270;22542;-56
2022/09/02 02:20:27;;;;;;;2.80;1.40;;;23.50;58.00;;;;;;219985;1269;22703;-56
2022/09/02 02:25:31;;;;;;;1.90;1.10;;;23.50;58.00;;;;;;220141;1268;25318;-55
2022/09/02 02:30:35;;;;;;;4.90;1.40;;;23.50;58.40;;;;;;220259;1269;26137;-54
2022/09/02 02:35:40;;;;;;;1.80;1.20;;;23.50;58.40;;;;;;220294;1267;25236;-57
2022/09/02 02:40:44;;;;;;;2.80;1.40;;;23.40;58.00;;;;;;220248;1267;23476;-54
2022/09/02 02:45:48;;;;;;;3.20;1.30;;;23.40;58.00;;;;;;220259;1270;24126;-52
2022/09/02 02:50:54;;;;;;;2.40;1.20;;;23.40;58.30;;;;;;220059;1268;22544;-56
2022/09/02 02:55:58;;;;;;;2.60;1.30;;;23.40;58.10;;;;;;220101;1270;22600;-52
2022/09/02 03:01:02;;;;;;;2.00;1.30;;;23.40;58.10;;;;;;220119;1270;22525;-58
2022/09/02 03:06:06;;;;;;;3.20;1.20;;;23.40;58.10;;;;;;220093;1270;24144;-55
2022/09/02 03:11:10;;;;;;;2.40;1.20;;;23.40;58.10;;;;;;219978;1270;24238;-53
2022/09/02 03:16:17;;;;;;;2.10;1.00;;;23.40;58.10;;;;;;219857;1270;22554;-54
2022/09/02 03:21:21;;;;;;;2.40;1.20;;;23.30;58.00;;;;;;220210;1268;26729;-55
2022/09/02 03:26:25;;;;;;;1.90;1.20;;;23.40;57.60;;;;;;220341;1269;22532;-53
2022/09/02 03:31:29;;;;;;;2.40;1.30;;;23.30;58.10;;;;;;220122;1269;24315;-58
2022/09/02 03:36:37;;;;;;;2.70;1.50;;;23.30;58.10;;;;;;220348;1270;22735;-56
2022/09/02 03:41:42;;;;;;;2.10;1.20;;;23.30;58.10;;;;;;220319;1270;25607;-52
2022/09/02 03:46:46;;;;;;;2.30;1.40;;;23.30;58.10;;;;;;220353;1267;22564;-52
2022/09/02 03:51:50;;;;;;;1.90;1.20;;;23.30;58.10;;;;;;220659;1267;24367;-54
2022/09/02 03:56:54;;;;;;;2.20;1.20;;;23.30;58.20;;;;;;220593;1267;22550;-52
2022/09/02 04:02:01;;;;;;;2.20;1.40;;;23.30;58.10;;;;;;220921;1267;22537;-54
2022/09/02 04:07:06;;;;;;;2.10;1.30;;;23.30;58.20;;;;;;220322;1267;24211;-54
2022/09/02 04:12:10;;;;;;;2.20;1.10;;;23.30;58.80;;;;;;220478;1267;22679;-55
2022/09/02 04:17:14;;;;;;;2.70;1.50;;;23.30;58.20;;;;;;220736;1267;24213;-55
2022/09/02 04:22:17;;;;;;;2.20;1.20;;;23.30;58.20;;;;;;220221;1267;22534;-56
2022/09/02 04:27:21;;;;;;;2.50;1.40;;;23.30;58.20;;;;;;220251;1267;22535;-55
2022/09/02 04:32:25;;;;;;;1.80;1.20;;;23.20;58.10;;;;;;220960;1267;24360;-54
2022/09/02 04:37:29;;;;;;;2.50;1.20;;;23.20;58.20;;;;;;220775;1267;22526;-57
2022/09/02 04:42:33;;;;;;;2.90;1.50;;;23.20;58.20;;;;;;220223;1267;22530;-54
2022/09/02 04:47:38;;;;;;;1.90;1.20;;;23.20;58.10;;;;;;220332;1267;22723;-55
2022/09/02 04:52:42;;;;;;;2.40;1.30;;;23.20;58.30;;;;;;220102;1267;25521;-54
2022/09/02 04:57:47;;;;;;;2.60;1.30;;;23.20;58.20;;;;;;218962;1267;1567193;-57
2022/09/02 05:02:53;;;;;;;2.10;1.20;;;23.20;58.10;;;;;;219928;1270;25243;-54
2022/09/02 05:07:58;;;;;;;2.20;1.20;;;23.20;58.10;;;;;;220202;1267;22728;-56
2022/09/02 05:13:05;;;;;;;3.20;1.40;;;23.20;58.20;;;;;;219949;1267;24757;-54
2022/09/02 05:18:09;;;;;;;1.90;1.10;;;23.20;58.20;;;;;;220139;1267;25364;-53
2022/09/02 05:23:14;;;;;;;2.50;1.30;;;23.20;58.00;;;;;;220141;1267;24230;-55
2022/09/02 05:28:18;;;;;;;2.30;1.10;;;23.20;58.20;;;;;;220310;1269;22566;-55
2022/09/02 05:33:22;;;;;;;2.50;1.20;;;23.10;58.10;;;;;;220316;1267;25369;-54
2022/09/02 05:38:31;;;;;;;2.00;1.20;;;23.20;58.40;;;;;;220117;1267;26211;-56
2022/09/02 05:43:37;;;;;;;2.40;1.20;;;23.10;58.40;;;;;;220459;1267;25623;-55
2022/09/02 05:54:04;;;;;;;3.00;1.20;;;23.10;58.00;;;;;;220782;1268;22630;-58
2022/09/02 05:59:08;;;;;;;2.30;1.40;;;23.10;58.10;;;;;;220108;1267;22534;-54
2022/09/02 06:04:14;;;;;;;2.50;1.20;;;23.10;58.00;;;;;;220146;1267;22541;-53
2022/09/02 06:09:21;;;;;;;2.10;1.20;;;23.20;58.00;;;;;;220426;1270;22566;-56
2022/09/02 06:14:26;;;;;;;1.90;1.20;;;23.20;58.10;;;;;;220574;1268;22527;-55
2022/09/02 06:19:31;;;;;;;2.50;1.40;;;23.20;57.90;;;;;;220251;1270;22560;-55
2022/09/02 06:24:35;;;;;;;2.10;1.20;;;23.20;57.90;;;;;;219947;1271;22568;-53
2022/09/02 06:29:44;;;;;;;2.10;1.30;;;23.20;57.90;;;;;;220121;1270;25544;-53
2022/09/02 06:34:50;;;;;;;3.20;1.30;;;23.20;58.10;;;;;;220358;1271;25242;-50
2022/09/02 06:39:54;;;;;;;2.30;1.40;;;23.20;57.70;;;;;;220368;1271;22600;-49
2022/09/02 06:45:03;;;;;;;1.70;1.10;;;23.20;57.70;;;;;;220180;1268;25868;-52
2022/09/02 06:50:07;;;;;;;1.90;1.10;;;23.20;57.70;;;;;;220116;1268;22541;-51
2022/09/02 06:55:12;;;;;;;2.20;1.20;;;23.20;57.70;;;;;;220340;1268;24296;-57
2022/09/02 07:00:16;;;;;;;1.90;1.20;;;23.20;57.70;;;;;;220330;1271;22540;-54
2022/09/02 07:05:20;;;;;;;2.20;1.20;;;23.30;57.70;;;;;;220366;1268;24214;-54
2022/09/02 07:10:24;;;;;;;2.40;1.30;;;23.30;57.70;;;;;;219968;1268;22770;-54
2022/09/02 07:15:28;;;;;;;2.40;1.50;;;23.30;57.60;;;;;;220523;1270;23192;-54
2022/09/02 07:20:32;;;;;;;2.40;1.40;;;23.30;57.60;;;;;;220178;1268;24276;-53
2022/09/02 07:25:40;;;;;;;1.60;1.00;;;23.30;57.50;;;;;;220163;1269;25355;-54
2022/09/02 07:30:44;;;;;;;2.40;1.50;;;23.30;58.10;;;;;;220104;1268;22760;-53
2022/09/02 07:35:52;;;;;;;2.30;1.40;;;23.30;57.50;;;;;;220590;1268;23937;-52
2022/09/02 07:40:56;;;;;;;1.90;1.40;;;23.30;57.80;;;;;;220814;1268;22841;-54
2022/09/02 07:46:04;;;;;;;2.00;1.30;;;23.40;57.50;;;;;;220626;1268;22686;-54
2022/09/02 07:51:09;;;;;;;1.40;1.00;;;23.40;57.40;;;;;;220281;1268;22535;-52
2022/09/02 07:56:13;;;;;;;1.90;1.10;;;23.40;57.50;;;;;;220550;1268;22528;-53
2022/09/02 08:01:19;;;;;;;2.70;1.40;;;23.40;57.30;;;;;;220553;1268;22539;-53
2022/09/02 08:06:27;;;;;;;2.30;1.20;;;23.40;57.20;;;;;;220096;1268;23821;-53
2022/09/02 08:11:38;;;;;;;1.40;1.10;;;23.50;57.20;;;;;;220028;1271;22553;-54
2022/09/02 08:16:43;;;;;;;1.80;1.20;;;23.50;57.20;;;;;;220297;1267;22531;-54
2022/09/02 08:21:47;;;;;;;2.30;1.10;;;23.50;57.20;;;;;;220359;1268;22620;-53
2022/09/02 08:26:50;;;;;;;1.90;1.10;;;23.50;57.10;;;;;;220235;1268;25438;-53
2022/09/02 08:31:54;;;;;;;1.50;1.00;;;23.60;57.00;;;;;;220016;1267;24343;-55
2022/09/02 08:36:58;;;;;;;2.30;1.50;;;23.60;57.00;;;;;;219968;1268;22561;-53
2022/09/02 08:42:13;;;;;;;1.80;1.20;;;23.60;57.00;;;;;;220175;1271;22650;-55
2022/09/02 08:47:23;;;;;;;1.60;1.20;;;23.60;57.00;;;;;;220251;1267;22539;-55
2022/09/02 08:52:41;;;;;;;1.70;1.10;;;23.60;56.80;;;;;;220325;1268;24264;-53
2022/09/02 08:57:45;;;;;;;2.00;1.10;;;23.70;56.80;;;;;;220299;1267;22568;-54
2022/09/02 09:03:29;;;;;;;1.80;1.20;;;23.70;56.80;;;;;;220301;1268;24397;-53
2022/09/02 09:08:39;;;;;;;1.80;1.00;;;23.70;56.70;;;;;;220165;1269;24252;-51
2022/09/02 09:14:19;;;;;;;1.90;1.30;;;23.80;56.70;;;;;;220500;1267;22548;-52
2022/09/02 09:19:27;;;;;;;2.40;1.30;;;23.80;56.50;;;;;;220386;1268;24225;-54
2022/09/02 09:24:50;;;;;;;1.50;1.00;;;23.80;56.30;;;;;;220421;1268;24274;-55
2022/09/02 09:29:54;;;;;;;2.10;1.30;;;23.90;56.10;;;;;;220113;1273;22573;-57
2022/09/02 09:35:01;;;;;;;1.70;1.20;;;23.90;56.00;;;;;;220099;1268;23022;-52
2022/09/02 09:40:32;;;;;;;1.80;1.20;;;23.90;56.00;;;;;;220169;1267;24211;-55
2022/09/02 09:46:22;;;;;;;2.50;1.30;;;23.90;56.00;;;;;;220284;1268;22590;-53
2022/09/02 09:51:26;;;;;;;1.50;0.90;;;24.00;56.00;;;;;;220317;1267;25414;-49
2022/09/02 09:56:33;;;;;;;1.70;1.20;;;24.00;56.40;;;;;;220429;1267;22528;-52
2022/09/02 10:01:50;;;;;;;1.90;1.10;;;24.00;56.50;;;;;;220169;1268;24793;-53
2022/09/02 10:06:54;;;;;;;1.90;1.30;;;24.10;55.80;;;;;;220652;1267;23916;-54
2022/09/02 10:12:01;;;;;;;1.70;1.10;;;24.10;56.10;;;;;;220181;1268;24785;-54
2022/09/02 10:17:42;;;;;;;1.80;1.20;;;24.10;55.50;;;;;;220299;1267;22564;-55
2022/09/02 10:22:58;;;;;;;1.90;1.10;;;24.10;55.50;;;;;;220273;1267;24286;-56
2022/09/02 10:28:13;;;;;;;1.70;1.00;;;24.10;55.60;;;;;;220658;1267;22640;-54
2022/09/02 10:33:23;;;;;;;1.40;0.90;;;24.10;55.60;;;;;;220506;1267;25326;-53
2022/09/02 10:38:47;;;;;;;2.20;1.20;;;24.10;55.60;;;;;;220467;1267;23942;-55
2022/09/02 10:44:07;;;;;;;2.10;1.00;;;24.10;55.20;;;;;;220564;1267;25293;-52
2022/09/02 10:49:22;;;;;;;1.80;1.00;;;24.10;55.10;;;;;;220500;1267;22778;-56
2022/09/02 10:54:52;;;;;;;1.40;1.00;;;24.10;55.30;;;;;;220203;1268;22721;-55
2022/09/02 11:00:12;;;;;;;2.00;1.30;;;24.10;55.40;;;;;;220173;1267;22519;-51
2022/09/02 11:05:38;;;;;;;;;;;24.10;55.60;;;;;;220346;1267;24319;-53
2022/09/02 11:10:55;;;;;;;1.40;0.90;;;24.10;55.40;;;;;;220438;1268;25331;-56
2022/09/02 11:16:34;;;;;;;1.80;1.20;;;24.00;55.30;;;;;;220066;1270;25253;-55
2022/09/02 11:21:41;;;;;;;2.10;1.10;;;24.10;55.50;;;;;;219926;1270;22555;-56
2022/09/02 11:27:15;;;;;;;1.50;1.00;;;24.20;55.60;;;;;;220392;1267;22535;-52
2022/09/02 11:33:11;;;;;;;1.80;0.90;;;24.30;55.30;;;;;;220587;1267;25101;-55
2022/09/02 11:38:35;;;;;;;2.00;1.00;;;24.30;55.20;;;;;;220505;1267;22814;-54
2022/09/02 11:44:16;;;;;;;1.10;0.80;;;24.30;55.20;;;;;;220493;1267;22544;-56
2022/09/02 11:49:32;;;;;;;2.40;1.00;;;24.30;55.20;;;;;;220293;1266;24678;-54
2022/09/02 11:54:43;;;;;;;1.80;1.10;;;24.40;55.00;;;;;;220470;1267;22557;-56
2022/09/02 11:59:49;;;;;;;1.20;0.80;;;24.40;55.10;;;;;;220494;1267;25248;-53
2022/09/02 12:05:28;;;;;;;1.40;1.00;;;24.40;55.00;;;;;;220561;1267;22531;-54
2022/09/02 12:10:46;;;;;;;1.40;0.90;;;24.50;54.90;;;;;;220232;1267;22528;-55
2022/09/02 12:16:19;;;;;;;1.30;0.80;;;24.40;54.70;;;;;;220607;1268;23055;-54
2022/09/02 12:21:25;;;;;;;1.60;1.00;;;24.50;54.80;;;;;;220733;1267;25243;-54
2022/09/02 12:26:34;;;;;;;2.10;1.10;;;24.50;54.70;;;;;;220387;1268;22543;-54
2022/09/02 12:31:45;;;;;;;1.40;0.90;;;24.60;54.80;;;;;;220464;1267;22560;-55
2022/09/02 12:36:57;;;;;;;1.40;0.90;;;24.60;55.30;;;;;;220414;1267;25290;-54
2022/09/02 12:42:26;;;;;;;1.40;0.90;;;24.60;54.70;;;;;;220371;1267;25319;-54
2022/09/02 12:47:47;;;;;;;1.30;0.90;;;24.60;54.60;;;;;;220339;1267;25367;-55
2022/09/02 12:53:06;;;;;;;2.10;0.90;;;24.70;54.90;;;;;;220296;1267;25293;-55
2022/09/02 12:58:15;;;;;;;;;;;24.60;54.50;;;;;;220355;1267;22514;-52
2022/09/02 13:03:22;;;;;;;1.30;0.90;;;24.60;54.60;;;;;;220112;1267;22544;-54
2022/09/02 13:08:59;;;;;;;2.10;1.10;;;24.60;54.80;;;;;;220098;1267;24226;-55
2022/09/02 13:14:38;;;;;;;1.30;0.90;;;24.60;55.00;;;;;;220437;1267;22539;-54
2022/09/02 13:20:21;;;;;;;1.60;0.90;;;24.50;54.90;;;;;;220456;1268;22550;-53
2022/09/02 13:25:40;;;;;;;1.70;1.00;;;24.60;54.60;;;;;;220520;1267;26494;-57
2022/09/02 13:31:12;;;;;;;1.70;1.00;;;24.70;53.90;;;;;;220356;1267;25408;-56
2022/09/02 13:36:34;;;;;;;1.40;0.90;;;24.70;54.70;;;;;;220579;1267;24367;-52
2022/09/02 13:41:54;;;;;;;1.90;0.90;;;24.70;55.20;;;;;;220237;1267;25195;-52
2022/09/02 13:47:03;;;;;;;1.50;0.90;;;24.60;54.80;;;;;;220610;1267;24367;-55
2022/09/02 13:52:23;;;;;;;1.60;1.10;;;24.60;54.70;;;;;;220469;1267;22985;-51
2022/09/02 13:58:20;;;;;;;2.40;1.10;;;24.50;54.70;;;;;;220020;1267;22563;-54
2022/09/02 14:03:31;;;;;;;1.20;0.90;;;24.50;54.80;;;;;;220232;1267;22562;-54
2022/09/02 14:08:41;;;;;;;1.80;1.10;;;24.50;54.20;;;;;;220489;1267;27277;-52
2022/09/02 14:13:51;;;;;;;1.70;1.10;;;24.50;54.20;;;;;;220405;1267;22547;-55
2022/09/02 14:19:24;;;;;;;1.20;0.90;;;24.50;54.80;;;;;;220525;1267;25370;-55
2022/09/02 14:24:39;;;;;;;1.50;1.00;;;24.50;54.70;;;;;;220619;1267;24376;-56
2022/09/02 14:30:09;;;;;;;1.70;0.80;;;24.50;54.60;;;;;;220407;1267;25050;-54
2022/09/02 14:35:16;;;;;;;1.50;1.00;;;24.40;54.90;;;;;;220372;1267;22695;-55
2022/09/02 14:40:38;;;;;;;1.80;1.00;;;24.50;54.70;;;;;;220439;1267;25941;-55
2022/09/02 14:45:48;;;;;;;1.50;0.90;;;24.40;54.70;;;;;;220249;1267;25312;-56
2022/09/02 14:51:02;;;;;;;1.70;1.00;;;24.40;55.00;;;;;;220289;1267;24788;-52
2022/09/02 14:56:06;;;;;;;2.50;0.90;;;24.40;54.60;;;;;;220385;1267;22573;-53
2022/09/02 15:01:20;;;;;;;1.60;1.00;;;24.40;54.50;;;;;;220210;1267;26482;-54
2022/09/02 15:06:24;;;;;;;1.80;1.00;;;24.40;54.50;;;;;;220242;1267;23892;-55
2022/09/02 15:11:37;;;;;;;1.20;0.80;;;24.40;54.40;;;;;;220265;1267;23041;-53
2022/09/02 15:16:43;;;;;;;1.30;0.80;;;24.40;54.30;;;;;;220180;1267;24894;-53
2022/09/02 15:21:46;;;;;;;1.70;0.90;;;24.40;54.30;;;;;;220124;1267;25250;-54
2022/09/02 15:26:53;;;;;;;1.50;0.90;;;24.30;54.80;;;;;;220491;1267;24215;-54
2022/09/02 15:32:01;;;;;;;1.70;1.10;;;24.30;54.60;;;;;;220289;1267;22597;-54
2022/09/02 15:37:19;;;;;;;1.80;1.20;;;24.30;54.90;;;;;;220192;1267;22557;-55
2022/09/02 15:42:35;;;;;;;2.10;1.20;;;24.30;54.70;;;;;;220395;1267;24307;-55
2022/09/02 15:47:40;;;;;;;1.80;1.00;;;24.30;54.90;;;;;;220286;1267;24168;-56
2022/09/02 15:52:45;;;;;;;2.20;1.10;;;24.30;55.00;;;;;;220387;1268;25326;-53
2022/09/02 15:57:48;;;;;;;1.50;1.00;;;24.30;55.30;;;;;;220346;1268;23096;-53
2022/09/02 16:02:52;;;;;;;1.90;0.90;;;24.30;55.50;;;;;;220272;1268;23010;-55
2022/09/02 16:08:03;;;;;;;1.80;1.00;;;24.30;55.20;;;;;;220112;1267;25355;-56
2022/09/02 16:13:07;;;;;;;1.40;0.90;;;24.30;55.30;;;;;;220158;1268;22625;-55
2022/09/02 16:18:24;;;;;;;2.70;1.10;;;24.30;55.40;;;;;;220534;1267;22754;-56
2022/09/02 16:23:28;;;;;;;2.30;1.00;;;24.30;55.50;;;;;;220109;1271;22888;-54
2022/09/02 16:28:36;;;;;;;6.10;1.10;;;24.20;55.50;;;;;;220255;1267;22641;-56
2022/09/02 16:33:41;;;;;;;1.80;1.10;;;24.20;55.60;;;;;;220364;1268;22531;-52
2022/09/02 16:38:45;;;;;;;2.80;0.90;;;24.20;55.40;;;;;;220353;1268;22594;-56
2022/09/02 16:43:56;;;;;;;1.70;1.10;;;24.20;55.30;;;;;;220473;1267;22543;-56
2022/09/02 16:49:00;;;;;;;2.40;1.30;;;24.20;55.30;;;;;;220648;1267;22534;-56
2022/09/02 16:54:07;;;;;;;2.20;1.50;;;24.20;55.40;;;;;;219285;1267;1318220;-51
2022/09/02 16:59:19;;;;;;;3.20;1.60;;;24.20;55.50;;;;;;219985;1267;23930;-55
2022/09/02 17:04:23;;;;;;;3.10;2.00;;;24.20;55.70;;;;;;219895;1269;22699;-56
2022/09/02 17:09:27;;;;;;;4.10;2.20;;;24.20;55.40;;;;;;220224;1267;26617;-56
2022/09/02 17:14:33;;;;;;;3.20;1.80;;;24.10;55.40;;;;;;220298;1268;24256;-57
2022/09/02 17:19:37;;;;;;;3.10;2.00;;;24.10;55.40;;;;;;220454;1267;25544;-54
2022/09/02 17:24:42;;;;;;;4.60;2.10;;;24.10;55.20;;;;;;220413;1268;25341;-53
2022/09/02 17:29:46;;;;;;;2.80;1.60;;;24.10;55.40;;;;;;220010;1269;23069;-54
2022/09/02 17:34:53;;;;;;;3.10;1.60;;;24.10;55.40;;;;;;220306;1268;22598;-53
2022/09/02 17:40:02;;;;;;;3.90;2.00;;;24.10;55.50;;;;;;220148;1268;25641;-51
2022/09/02 17:45:16;;;;;;;3.20;1.70;;;24.10;55.50;;;;;;220373;1268;22544;-55
2022/09/02 17:50:20;;;;;;;2.80;1.60;;;24.10;55.50;;;;;;220175;1267;25244;-55
2022/09/02 17:55:32;;;;;;;2.90;1.90;;;24.10;55.50;;;;;;220110;1267;22545;-56
2022/09/02 18:00:40;;;;;;;2.80;1.70;;;24.10;55.60;;;;;;220118;1267;22635;-53
2022/09/02 18:06:05;;;;;;;2.70;1.60;;;24.10;55.60;;;;;;220207;1267;24191;-54
2022/09/02 18:11:14;;;;;;;2.80;1.70;;;24.10;55.50;;;;;;220160;1268;24192;-59
2022/09/02 18:16:36;;;;;;;4.30;1.60;;;24.10;55.50;;;;;;220466;1267;24222;-54
2022/09/02 18:22:13;;;;;;;2.50;1.60;;;24.00;55.40;;;;;;220197;1267;22617;-56
2022/09/02 18:27:45;;;;;;;2.40;1.50;;;24.00;55.50;;;;;;220260;1268;22705;-56
2022/09/02 18:33:25;;;;;;;2.60;1.40;;;24.00;55.50;;;;;;220302;1267;22552;-55
2022/09/02 18:39:05;;;;;;;;;;;24.00;55.50;;;;;;220584;1267;24444;-54
2022/09/02 18:44:39;;;;;;;3.70;1.80;;;24.00;55.60;;;;;;220246;1267;25092;-54
2022/09/02 18:49:51;;;;;;;3.20;1.50;;;24.00;55.70;;;;;;220414;1268;22534;-55
2022/09/02 18:55:06;;;;;;;2.50;1.50;;;24.00;55.70;;;;;;220447;1267;24274;-53
2022/09/02 19:00:14;;;;;;;2.10;1.40;;;23.90;55.60;;;;;;220349;1267;24219;-53
2022/09/02 19:05:24;;;;;;;4.10;1.60;;;23.90;55.70;;;;;;220216;1267;22532;-54
2022/09/02 19:10:33;;;;;;;2.80;1.60;;;23.90;55.70;;;;;;220298;1267;24215;-54
2022/09/02 19:15:41;;;;;;;2.20;1.50;;;23.90;55.80;;;;;;220227;1266;25301;-55
2022/09/02 19:20:48;;;;;;;3.40;1.50;;;23.90;56.10;;;;;;220444;1268;22531;-55
2022/09/02 19:25:58;;;;;;;2.80;1.60;;;23.90;55.80;;;;;;220480;1267;22571;-56
2022/09/02 19:31:12;;;;;;;2.80;1.40;;;23.90;56.00;;;;;;220508;1267;25361;-56
2022/09/02 19:36:23;;;;;;;2.30;1.40;;;23.90;56.00;;;;;;220301;1267;22697;-56
2022/09/02 19:41:29;;;;;;;2.30;1.60;;;23.90;56.00;;;;;;220192;1267;24564;-51
2022/09/02 19:46:33;;;;;;;2.40;1.50;;;23.90;56.00;;;;;;220575;1267;25306;-56
2022/09/02 19:52:00;;;;;;;2.70;1.70;;;23.80;56.30;;;;;;220410;1267;24351;-54
2022/09/02 19:57:08;;;;;;;4.30;1.70;;;23.90;56.00;;;;;;220385;1267;23901;-54
2022/09/02 20:02:21;;;;;;;2.50;1.70;;;23.80;55.60;;;;;;220831;1267;23653;-56
2022/09/02 20:07:25;;;;;;;2.30;1.50;;;23.80;55.90;;;;;;220764;1267;22545;-52
2022/09/02 20:12:31;;;;;;;2.30;1.30;;;23.80;56.00;;;;;;220150;1267;22707;-58
2022/09/02 20:17:36;;;;;;;3.20;1.80;;;23.80;56.00;;;;;;220335;1267;22540;-54
2022/09/02 20:22:48;;;;;;;2.60;1.60;;;23.80;56.00;;;;;;220214;1267;24219;-56
2022/09/02 20:28:37;;;;;;;2.40;1.50;;;23.80;56.00;;;;;;220270;1267;24288;-55
2022/09/02 20:34:36;;;;;;;2.60;1.50;;;23.80;56.00;;;;;;220133;1267;22848;-57
2022/09/02 20:40:33;;;;;;;2.20;1.40;;;23.80;56.00;;;;;;220186;1267;25238;-55
2022/09/02 20:46:13;;;;;;;2.10;1.40;;;23.80;56.00;;;;;;219423;1267;24212;-53
2022/09/02 20:51:50;;;;;;;2.30;1.30;;;23.80;56.40;;;;;;220192;1270;22562;-54
2022/09/02 20:57:10;;;;;;;2.30;1.60;;;23.70;56.10;;;;;;220282;1267;24377;-57
2022/09/02 21:02:30;;;;;;;2.60;1.60;;;23.70;56.00;;;;;;220665;1267;25252;-53
2022/09/02 21:07:45;;;;;;;2.30;1.30;;;23.70;56.10;;;;;;220482;1267;24335;-54
2022/09/02 21:13:06;;;;;;;2.50;1.40;;;23.70;56.00;;;;;;220477;1267;25452;-56
2022/09/02 21:18:36;;;;;;;2.00;1.40;;;23.70;56.00;;;;;;220405;1267;24209;-54
2022/09/02 21:24:37;;;;;;;2.80;1.60;;;23.70;56.00;;;;;;220646;1267;24918;-54
2022/09/02 21:30:08;;;;;;;2.00;1.40;;;23.70;55.90;;;;;;220388;1267;25247;-56
2022/09/02 21:35:22;;;;;;;2.40;1.50;;;23.60;55.90;;;;;;220182;1267;24360;-54
2022/09/02 21:40:59;;;;;;;2.10;1.30;;;23.60;55.90;;;;;;220108;1267;22627;-54
2022/09/02 21:46:42;;;;;;;2.50;1.40;;;23.60;55.90;;;;;;220027;1267;22687;-54
2022/09/02 21:52:00;;;;;;;2.10;1.50;;;23.60;55.90;;;;;;220313;1267;22751;-53
2022/09/02 21:57:38;;;;;;;2.00;1.30;;;23.60;55.90;;;;;;220078;1270;25554;-56
2022/09/02 22:03:35;;;;;;;3.10;1.40;;;23.60;55.60;;;;;;220163;1267;22531;-57
2022/09/02 22:09:09;;;;;;;2.00;1.20;;;23.60;55.90;;;;;;220130;1267;22527;-56
2022/09/02 22:15:06;;;;;;;2.40;1.20;;;23.60;55.90;;;;;;220278;1267;24204;-55
2022/09/02 22:20:17;;;;;;;3.80;1.40;;;23.60;55.80;;;;;;220117;1270;24663;-56
2022/09/02 22:25:26;;;;;;;2.40;1.30;;;23.60;55.90;;;;;;220223;1267;24216;-56
2022/09/02 22:30:43;;;;;;;2.90;1.60;;;23.60;55.90;;;;;;220074;1267;24242;-54
2022/09/02 22:36:13;;;;;;;3.60;1.60;;;23.50;55.90;;;;;;220242;1267;24730;-55
2022/09/02 22:41:57;;;;;;;2.60;1.30;;;23.50;55.90;;;;;;220656;1270;22703;-56
2022/09/02 22:53:03;;;;;;;2.90;1.50;;;23.50;55.90;;;;;;220084;1267;25566;-54
2022/09/02 22:58:25;;;;;;;2.80;1.50;;;23.50;55.90;;;;;;220314;1267;25634;-55
2022/09/02 23:04:03;;;;;;;2.80;1.50;;;23.50;55.90;;;;;;220031;1267;25230;-55
2022/09/02 23:09:10;;;;;;;3.00;1.40;;;23.50;55.90;;;;;;220237;1267;23905;-54
2022/09/02 23:14:51;;;;;;;2.10;1.20;;;23.50;56.20;;;;;;220292;1267;22629;-55
2022/09/02 23:20:18;;;;;;;2.40;1.40;;;23.50;56.00;;;;;;220148;1267;25253;-53
2022/09/02 23:25:39;;;;;;;2.50;1.50;;;23.50;55.90;;;;;;220084;1267;24253;-56
2022/09/02 23:31:00;;;;;;;2.40;1.40;;;23.50;55.90;;;;;;220215;1270;24400;-54
2022/09/02 23:36:20;;;;;;;2.50;1.50;;;23.50;55.90;;;;;;220078;1267;24225;-54
2022/09/02 23:41:26;;;;;;;2.00;1.20;;;23.40;55.80;;;;;;220739;1267;22752;-55
2022/09/02 23:46:58;;;;;;;2.40;1.40;;;23.40;55.80;;;;;;220299;1269;22556;-55
2022/09/02 23:52:07;;;;;;;4.60;1.70;;;23.40;55.90;;;;;;220289;1267;22548;-58
2022/09/02 23:57:42;;;;;;;2.30;1.40;;;23.40;56.30;;;;;;220222;1271;26705;-55
